WetterOnline ( https://www.wetteronline.de )

Wetter aktuell Lüchow

Aktuelles Wetter: Lüchow (18m)

6-stündlich | Neueste Meldungen
Ortszeit Temperatur Wetter
Mi, 24.04. 20:00 21.8° C wolkenlos
Mi, 24.04. 14:00 20.7° C wolkenlos
Mi, 24.04. 8:00 12.3° C bedeckt
Mi, 24.04. 2:00 12.7° C wolkenlos
Di, 23.04. 20:00 17.1° C bedeckt
Di, 23.04. 14:00 18.8° C wolkenlos
Di, 23.04. 8:00 11.8° C wolkenlos
Di, 23.04. 2:00 13.1° C wolkenlos
Ortszeit Temperatur Wetter
Mi, 24.04. 23:30 18.3° C wolkig
Mi, 24.04. 23:20 18.3° C wolkig
Mi, 24.04. 23:10 18.5° C wolkig
Mi, 24.04. 23:00 19.0° C leicht bewölkt
Mi, 24.04. 22:50 19.0° C leicht bewölkt
Mi, 24.04. 22:40 19.1° C wolkig
Mi, 24.04. 22:30 19.3° C wolkig
Mi, 24.04. 22:00 19.7° C leicht bewölkt
Mi, 24.04. 21:30 19.9° C wolkenlos
Mi, 24.04. 21:00 20.6° C wolkenlos
Mi, 24.04. 20:30 21.0° C leicht bewölkt
Ortszeit Relative Feuchte Sichtweite
Mi, 24.04. 20:00 44% 21 km
Mi, 24.04. 14:00 46% 11 km
Mi, 24.04. 8:00 73% 14 km
Mi, 24.04. 2:00 64% 24 km
Di, 23.04. 20:00 48% 20 km
Di, 23.04. 14:00 34% 10 km
Di, 23.04. 8:00 52% 12 km
Di, 23.04. 2:00 54% 30 km
Ortszeit Relative Feuchte Sichtweite
Mi, 24.04. 23:30 53% 16 km
Mi, 24.04. 23:20 53% -
Mi, 24.04. 23:10 52% -
Mi, 24.04. 23:00 51% 17 km
Mi, 24.04. 22:50 51% -
Mi, 24.04. 22:40 51% -
Mi, 24.04. 22:30 50% 17 km
Mi, 24.04. 22:00 49% 17 km
Mi, 24.04. 21:30 49% 19 km
Mi, 24.04. 21:00 47% 21 km
Mi, 24.04. 20:30 46% 22 km
Ortszeit Niederschlagsmenge Niederschlagsart
Mi, 24.04. 20:00 0.1 l/m2 in 12 Std. -
Mi, 24.04. 14:00 0.1 l/m2 in 6 Std. Regen
Mi, 24.04. 8:00 0.1 l/m2 in 12 Std. Regen
Mi, 24.04. 2:00 0.0 l/m2 in 6 Std. -
Di, 23.04. 20:00 0.0 l/m2 in 12 Std. -
Di, 23.04. 14:00 0.1 l/m2 in 6 Std. Sprühregen
Di, 23.04. 8:00 0.0 l/m2 in 12 Std. -
Di, 23.04. 2:00 0.0 l/m2 in 6 Std. -
Ortszeit Niederschlagsmenge Niederschlagsart
Mi, 24.04. 23:30 0.0 l/m2 in 1 Std. -
Mi, 24.04. 23:20 keine Meldung -
Mi, 24.04. 23:10 keine Meldung -
Mi, 24.04. 23:00 0.0 l/m2 in 1 Std. -
Mi, 24.04. 22:50 keine Meldung -
Mi, 24.04. 22:40 keine Meldung -
Mi, 24.04. 22:30 0.0 l/m2 in 1 Std. -
Mi, 24.04. 22:00 0.0 l/m2 in 1 Std. -
Mi, 24.04. 21:30 0.0 l/m2 in 1 Std. -
Mi, 24.04. 21:00 0.0 l/m2 in 1 Std. -
Mi, 24.04. 20:30 0.0 l/m2 in 1 Std. -
Ortszeit Stärke Spitze Richtung
km/h Bft. km/h Grad Sektor
Mi, 24.04. 20:00 15 3 37 100° O
Mi, 24.04. 14:00 19 3 33 110° O
Mi, 24.04. 8:00 13 3 30 120° SO
Mi, 24.04. 2:00 9 2 48 120° SO
Di, 23.04. 20:00 20 4 57 110° O
Di, 23.04. 14:00 26 4 54 90° O
Di, 23.04. 8:00 20 4 44 90° O
Di, 23.04. 2:00 17 3 46 90° O
Ortszeit Stärke Spitze Richtung
km/h Bft. km/h Grad Sektor
Mi, 24.04. 23:30 11 2 18 90° O
Mi, 24.04. 23:20 11 2 - 90° O
Mi, 24.04. 23:10 11 2 - 100° O
Mi, 24.04. 23:00 13 3 22 100° O
Mi, 24.04. 22:50 13 3 - 100° O
Mi, 24.04. 22:40 13 3 - 100° O
Mi, 24.04. 22:30 13 3 22 110° O
Mi, 24.04. 22:00 13 3 22 100° O
Mi, 24.04. 21:30 11 2 22 100° O
Mi, 24.04. 21:00 13 3 28 90° O
Mi, 24.04. 20:30 14 3 29 100° O
Ortszeit Untergrenze Bedeckung Gattung
total tief tief mittel hoch
Mi, 24.04. 20:00 - 0/8 0/8 - - -
Mi, 24.04. 14:00 - 0/8 0/8 - - -
Mi, 24.04. 8:00 2400 m 8/8 8/8 - - -
Mi, 24.04. 2:00 - 0/8 0/8 - - -
Di, 23.04. 20:00 1500 m 8/8 8/8 - - -
Di, 23.04. 14:00 - 0/8 0/8 - - -
Di, 23.04. 8:00 - 0/8 0/8 - - -
Di, 23.04. 2:00 - 0/8 0/8 - - -
Ortszeit Bedeckungsgrad in Achtel und Wolkenuntergrenze
Mi, 24.04. 23:30 3(8700m) 7(10500m)
Mi, 24.04. 23:20 3(8700m) 7(10500m)
Mi, 24.04. 23:10 2(8400m) 7(10500m)
Mi, 24.04. 23:00 1(8700m) 6(9000m)
Mi, 24.04. 22:50 1(8700m) 6(9000m)
Mi, 24.04. 22:40 1(9000m) 8(9000m)
Mi, 24.04. 22:30 2(9000m) 7(9000m) 8(10500m)
Mi, 24.04. 22:00 4(10500m)
Mi, 24.04. 21:30 keine Wolken
Mi, 24.04. 21:00 keine Wolken
Mi, 24.04. 20:30 3(10500m)
Ortszeit Luftdruck NN (hPa) Tendenz (hPa in 3 Std.)
Mi, 24.04. 20:00 1005 + 0,1
Mi, 24.04. 14:00 1006 + 0,2
Mi, 24.04. 8:00 1005 + 0,5
Mi, 24.04. 2:00 1005 - 0,3
Di, 23.04. 20:00 1005 - 0,3
Di, 23.04. 14:00 1007 - 2,5
Di, 23.04. 8:00 1011 - 0,6
Di, 23.04. 2:00 1013 - 1,5
Ortszeit Luftdruck NN (hPa) Tendenz (hPa in 3 Std.)
Mi, 24.04. 23:30 1005 + 0,1
Mi, 24.04. 23:20 1005 keine Meldung
Mi, 24.04. 23:10 1005 keine Meldung
Mi, 24.04. 23:00 1005 + 0,2
Mi, 24.04. 22:50 1005 keine Meldung
Mi, 24.04. 22:40 1005 keine Meldung
Mi, 24.04. 22:30 1005 + 0,7
Mi, 24.04. 22:00 1005 + 0,7
Mi, 24.04. 21:30 1005 + 0,8
Mi, 24.04. 21:00 1005 + 0,8
Mi, 24.04. 20:30 1005 + 0,4
Ortszeit Schneehöhe (cm)
Mi, 24.04. 20:00 0
Mi, 24.04. 14:00 0
Mi, 24.04. 8:00 0
Mi, 24.04. 2:00 0
Di, 23.04. 20:00 0
Di, 23.04. 14:00 0
Di, 23.04. 8:00 0
Di, 23.04. 2:00 0
Ortszeit Schneehöhe (cm)
Mi, 24.04. 23:30 0
Mi, 24.04. 23:20 0
Mi, 24.04. 23:10 0
Mi, 24.04. 23:00 0
Mi, 24.04. 22:50 0
Mi, 24.04. 22:40 0
Mi, 24.04. 22:30 0
Mi, 24.04. 22:00 0
Mi, 24.04. 21:30 0
Mi, 24.04. 21:00 0
Mi, 24.04. 20:30 0
Link zu dieser Seite / Seite empfehlen

Das Wetter in ...